sensor_id;sensor_type;location;lat;lon;timestamp;P1;durP1;ratioP1;P2;durP2;ratioP2
49310;SDS011;35177;45.900;5.946;2023-12-20T00:01:39;43.67;;;22.08;;
49310;SDS011;35177;45.900;5.946;2023-12-20T00:04:04;36.83;;;21.92;;
49310;SDS011;35177;45.900;5.946;2023-12-20T00:06:30;36.72;;;21.88;;
49310;SDS011;35177;45.900;5.946;2023-12-20T00:08:55;41.85;;;23.30;;
49310;SDS011;35177;45.900;5.946;2023-12-20T00:11:22;35.28;;;22.42;;
49310;SDS011;35177;45.900;5.946;2023-12-20T00:13:48;39.50;;;22.23;;
49310;SDS011;35177;45.900;5.946;2023-12-20T00:16:14;36.28;;;20.88;;
49310;SDS011;35177;45.900;5.946;2023-12-20T00:18:39;39.33;;;21.98;;
49310;SDS011;35177;45.900;5.946;2023-12-20T00:21:04;39.80;;;22.70;;
49310;SDS011;35177;45.900;5.946;2023-12-20T00:23:30;40.83;;;22.25;;
49310;SDS011;35177;45.900;5.946;2023-12-20T00:25:55;42.30;;;22.98;;
49310;SDS011;35177;45.900;5.946;2023-12-20T00:28:21;38.90;;;22.17;;
49310;SDS011;35177;45.900;5.946;2023-12-20T00:30:46;40.00;;;21.48;;
49310;SDS011;35177;45.900;5.946;2023-12-20T00:33:12;35.97;;;22.05;;
49310;SDS011;35177;45.900;5.946;2023-12-20T00:35:37;36.03;;;22.02;;
49310;SDS011;35177;45.900;5.946;2023-12-20T00:38:03;43.25;;;21.88;;
49310;SDS011;35177;45.900;5.946;2023-12-20T00:40:30;38.72;;;21.67;;
49310;SDS011;35177;45.900;5.946;2023-12-20T00:42:55;38.22;;;21.98;;
49310;SDS011;35177;45.900;5.946;2023-12-20T00:45:20;39.45;;;21.70;;
49310;SDS011;35177;45.900;5.946;2023-12-20T00:47:46;32.33;;;19.88;;
49310;SDS011;35177;45.900;5.946;2023-12-20T00:50:11;32.42;;;19.27;;
49310;SDS011;35177;45.900;5.946;2023-12-20T00:52:37;35.10;;;20.00;;
49310;SDS011;35177;45.900;5.946;2023-12-20T00:55:02;33.92;;;19.38;;
49310;SDS011;35177;45.900;5.946;2023-12-20T00:57:29;34.13;;;19.75;;
49310;SDS011;35177;45.900;5.946;2023-12-20T00:59:54;30.55;;;19.17;;
49310;SDS011;35177;45.900;5.946;2023-12-20T01:02:19;32.97;;;19.20;;
49310;SDS011;35177;45.900;5.946;2023-12-20T01:04:45;37.70;;;19.75;;
49310;SDS011;35177;45.900;5.946;2023-12-20T01:07:10;36.40;;;20.48;;
49310;SDS011;35177;45.900;5.946;2023-12-20T01:09:36;33.20;;;19.55;;
49310;SDS011;35177;45.900;5.946;2023-12-20T01:12:01;29.50;;;18.50;;
49310;SDS011;35177;45.900;5.946;2023-12-20T01:14:26;32.33;;;19.55;;
49310;SDS011;35177;45.900;5.946;2023-12-20T01:16:52;34.50;;;20.48;;
49310;SDS011;35177;45.900;5.946;2023-12-20T01:19:17;31.90;;;19.65;;
49310;SDS011;35177;45.900;5.946;2023-12-20T01:21:43;32.60;;;20.33;;
49310;SDS011;35177;45.900;5.946;2023-12-20T01:24:09;32.80;;;19.65;;
49310;SDS011;35177;45.900;5.946;2023-12-20T01:26:34;37.45;;;20.00;;
49310;SDS011;35177;45.900;5.946;2023-12-20T01:29:00;36.78;;;21.80;;
49310;SDS011;35177;45.900;5.946;2023-12-20T01:31:26;36.30;;;21.33;;
49310;SDS011;35177;45.900;5.946;2023-12-20T01:33:52;37.53;;;21.20;;
49310;SDS011;35177;45.900;5.946;2023-12-20T01:36:17;33.53;;;19.48;;
49310;SDS011;35177;45.900;5.946;2023-12-20T01:38:43;34.10;;;19.85;;
49310;SDS011;35177;45.900;5.946;2023-12-20T01:41:08;29.52;;;17.83;;
49310;SDS011;35177;45.900;5.946;2023-12-20T01:43:34;41.13;;;23.00;;
49310;SDS011;35177;45.900;5.946;2023-12-20T01:45:59;41.83;;;21.95;;
49310;SDS011;35177;45.900;5.946;2023-12-20T01:48:25;34.50;;;19.92;;
49310;SDS011;35177;45.900;5.946;2023-12-20T01:50:52;34.60;;;19.67;;
49310;SDS011;35177;45.900;5.946;2023-12-20T01:53:19;33.45;;;19.13;;
49310;SDS011;35177;45.900;5.946;2023-12-20T01:55:46;33.65;;;19.42;;
49310;SDS011;35177;45.900;5.946;2023-12-20T01:58:15;33.28;;;19.38;;
49310;SDS011;35177;45.900;5.946;2023-12-20T02:00:41;34.10;;;20.30;;
49310;SDS011;35177;45.900;5.946;2023-12-20T02:03:07;36.35;;;20.05;;
49310;SDS011;35177;45.900;5.946;2023-12-20T02:05:33;34.10;;;20.00;;
49310;SDS011;35177;45.900;5.946;2023-12-20T02:08:00;36.00;;;18.92;;
49310;SDS011;35177;45.900;5.946;2023-12-20T02:10:26;36.45;;;21.02;;
49310;SDS011;35177;45.900;5.946;2023-12-20T02:12:52;34.97;;;19.63;;
49310;SDS011;35177;45.900;5.946;2023-12-20T02:15:17;36.22;;;20.58;;
49310;SDS011;35177;45.900;5.946;2023-12-20T02:17:43;38.90;;;20.67;;
49310;SDS011;35177;45.900;5.946;2023-12-20T02:20:09;32.17;;;18.85;;
49310;SDS011;35177;45.900;5.946;2023-12-20T02:22:35;38.53;;;21.48;;
49310;SDS011;35177;45.900;5.946;2023-12-20T02:25:00;36.75;;;19.50;;
49310;SDS011;35177;45.900;5.946;2023-12-20T02:27:26;35.08;;;19.48;;
49310;SDS011;35177;45.900;5.946;2023-12-20T02:29:53;34.40;;;20.48;;
49310;SDS011;35177;45.900;5.946;2023-12-20T02:32:18;35.70;;;20.52;;
49310;SDS011;35177;45.900;5.946;2023-12-20T02:34:46;35.00;;;19.65;;
49310;SDS011;35177;45.900;5.946;2023-12-20T02:37:12;32.95;;;19.63;;
49310;SDS011;35177;45.900;5.946;2023-12-20T02:39:38;34.47;;;19.48;;
49310;SDS011;35177;45.900;5.946;2023-12-20T02:42:03;38.83;;;21.60;;
49310;SDS011;35177;45.900;5.946;2023-12-20T02:44:29;33.22;;;20.00;;
49310;SDS011;35177;45.900;5.946;2023-12-20T02:46:54;33.97;;;20.08;;
49310;SDS011;35177;45.900;5.946;2023-12-20T02:49:19;35.17;;;19.92;;
49310;SDS011;35177;45.900;5.946;2023-12-20T02:51:45;32.55;;;18.00;;
49310;SDS011;35177;45.900;5.946;2023-12-20T02:54:11;34.70;;;19.05;;
49310;SDS011;35177;45.900;5.946;2023-12-20T02:56:36;34.70;;;19.08;;
49310;SDS011;35177;45.900;5.946;2023-12-20T02:59:02;34.05;;;19.30;;
49310;SDS011;35177;45.900;5.946;2023-12-20T03:01:30;32.97;;;18.55;;
49310;SDS011;35177;45.900;5.946;2023-12-20T03:03:56;32.10;;;18.08;;
49310;SDS011;35177;45.900;5.946;2023-12-20T03:06:21;31.25;;;18.00;;
49310;SDS011;35177;45.900;5.946;2023-12-20T03:08:47;33.58;;;18.95;;
49310;SDS011;35177;45.900;5.946;2023-12-20T03:11:12;35.03;;;19.15;;
49310;SDS011;35177;45.900;5.946;2023-12-20T03:13:37;34.88;;;19.38;;
49310;SDS011;35177;45.900;5.946;2023-12-20T03:16:09;31.35;;;18.17;;
49310;SDS011;35177;45.900;5.946;2023-12-20T03:18:35;31.88;;;18.10;;
49310;SDS011;35177;45.900;5.946;2023-12-20T03:21:01;33.08;;;19.58;;
49310;SDS011;35177;45.900;5.946;2023-12-20T03:23:26;32.58;;;18.67;;
49310;SDS011;35177;45.900;5.946;2023-12-20T03:25:52;36.03;;;19.67;;
49310;SDS011;35177;45.900;5.946;2023-12-20T03:28:17;34.10;;;19.83;;
49310;SDS011;35177;45.900;5.946;2023-12-20T03:30:43;36.03;;;19.73;;
49310;SDS011;35177;45.900;5.946;2023-12-20T03:33:09;36.40;;;19.35;;
49310;SDS011;35177;45.900;5.946;2023-12-20T03:35:34;34.20;;;20.10;;
49310;SDS011;35177;45.900;5.946;2023-12-20T03:38:00;41.70;;;20.88;;
49310;SDS011;35177;45.900;5.946;2023-12-20T03:40:25;29.42;;;18.85;;
49310;SDS011;35177;45.900;5.946;2023-12-20T03:42:51;35.20;;;20.10;;
49310;SDS011;35177;45.900;5.946;2023-12-20T03:45:16;36.10;;;20.00;;
49310;SDS011;35177;45.900;5.946;2023-12-20T03:47:42;39.17;;;20.77;;
49310;SDS011;35177;45.900;5.946;2023-12-20T03:50:07;36.42;;;21.02;;
49310;SDS011;35177;45.900;5.946;2023-12-20T03:52:32;36.55;;;20.92;;
49310;SDS011;35177;45.900;5.946;2023-12-20T03:54:58;35.28;;;20.85;;
49310;SDS011;35177;45.900;5.946;2023-12-20T03:57:23;37.28;;;21.83;;
49310;SDS011;35177;45.900;5.946;2023-12-20T03:59:49;37.47;;;21.65;;
49310;SDS011;35177;45.900;5.946;2023-12-20T04:02:14;37.83;;;21.10;;
49310;SDS011;35177;45.900;5.946;2023-12-20T04:04:39;37.00;;;21.67;;
49310;SDS011;35177;45.900;5.946;2023-12-20T04:07:05;37.25;;;21.20;;
49310;SDS011;35177;45.900;5.946;2023-12-20T04:09:30;41.53;;;23.25;;
49310;SDS011;35177;45.900;5.946;2023-12-20T04:11:56;38.38;;;20.75;;
49310;SDS011;35177;45.900;5.946;2023-12-20T04:14:21;37.42;;;20.42;;
49310;SDS011;35177;45.900;5.946;2023-12-20T04:16:46;44.78;;;23.15;;
49310;SDS011;35177;45.900;5.946;2023-12-20T04:19:12;44.08;;;22.60;;
49310;SDS011;35177;45.900;5.946;2023-12-20T04:21:37;37.72;;;21.83;;
49310;SDS011;35177;45.900;5.946;2023-12-20T04:24:02;36.85;;;21.55;;
49310;SDS011;35177;45.900;5.946;2023-12-20T04:26:28;40.08;;;20.70;;
49310;SDS011;35177;45.900;5.946;2023-12-20T04:28:54;35.63;;;20.92;;
49310;SDS011;35177;45.900;5.946;2023-12-20T04:31:20;41.17;;;22.88;;
49310;SDS011;35177;45.900;5.946;2023-12-20T04:33:45;36.05;;;20.80;;
49310;SDS011;35177;45.900;5.946;2023-12-20T04:36:10;38.45;;;22.30;;
49310;SDS011;35177;45.900;5.946;2023-12-20T04:38:36;35.83;;;21.95;;
49310;SDS011;35177;45.900;5.946;2023-12-20T04:41:01;40.22;;;21.70;;
49310;SDS011;35177;45.900;5.946;2023-12-20T04:43:27;40.17;;;21.95;;
49310;SDS011;35177;45.900;5.946;2023-12-20T04:45:54;38.28;;;21.83;;
49310;SDS011;35177;45.900;5.946;2023-12-20T04:48:20;42.17;;;22.50;;
49310;SDS011;35177;45.900;5.946;2023-12-20T04:50:45;37.45;;;22.63;;
49310;SDS011;35177;45.900;5.946;2023-12-20T04:53:11;41.63;;;23.73;;
49310;SDS011;35177;45.900;5.946;2023-12-20T04:55:36;44.95;;;23.85;;
49310;SDS011;35177;45.900;5.946;2023-12-20T04:58:01;40.55;;;22.60;;
49310;SDS011;35177;45.900;5.946;2023-12-20T05:00:27;38.50;;;22.50;;
49310;SDS011;35177;45.900;5.946;2023-12-20T05:02:52;39.65;;;22.02;;
49310;SDS011;35177;45.900;5.946;2023-12-20T05:05:17;38.72;;;22.27;;
49310;SDS011;35177;45.900;5.946;2023-12-20T05:07:43;36.83;;;23.30;;
49310;SDS011;35177;45.900;5.946;2023-12-20T05:10:09;41.22;;;23.52;;
49310;SDS011;35177;45.900;5.946;2023-12-20T05:12:34;39.38;;;24.02;;
49310;SDS011;35177;45.900;5.946;2023-12-20T05:15:00;46.30;;;26.25;;
49310;SDS011;35177;45.900;5.946;2023-12-20T05:17:25;41.10;;;24.50;;
49310;SDS011;35177;45.900;5.946;2023-12-20T05:19:51;39.95;;;24.08;;
49310;SDS011;35177;45.900;5.946;2023-12-20T05:22:16;45.60;;;27.17;;
49310;SDS011;35177;45.900;5.946;2023-12-20T05:24:42;44.03;;;25.83;;
49310;SDS011;35177;45.900;5.946;2023-12-20T05:27:07;48.83;;;26.30;;
49310;SDS011;35177;45.900;5.946;2023-12-20T05:29:33;44.15;;;26.90;;
49310;SDS011;35177;45.900;5.946;2023-12-20T05:31:58;44.78;;;25.83;;
49310;SDS011;35177;45.900;5.946;2023-12-20T05:34:24;40.47;;;24.95;;
49310;SDS011;35177;45.900;5.946;2023-12-20T05:36:49;41.85;;;25.90;;
49310;SDS011;35177;45.900;5.946;2023-12-20T05:39:15;41.20;;;25.38;;
49310;SDS011;35177;45.900;5.946;2023-12-20T05:41:40;41.67;;;25.10;;
49310;SDS011;35177;45.900;5.946;2023-12-20T05:44:05;39.35;;;25.83;;
49310;SDS011;35177;45.900;5.946;2023-12-20T05:46:31;39.67;;;24.63;;
49310;SDS011;35177;45.900;5.946;2023-12-20T05:48:56;54.63;;;33.92;;
49310;SDS011;35177;45.900;5.946;2023-12-20T05:51:22;45.72;;;28.05;;
49310;SDS011;35177;45.900;5.946;2023-12-20T05:53:47;44.55;;;26.70;;
49310;SDS011;35177;45.900;5.946;2023-12-20T05:56:14;38.80;;;24.10;;
49310;SDS011;35177;45.900;5.946;2023-12-20T05:58:40;43.20;;;24.40;;
49310;SDS011;35177;45.900;5.946;2023-12-20T06:01:06;41.28;;;24.00;;
49310;SDS011;35177;45.900;5.946;2023-12-20T06:03:33;44.67;;;25.83;;
49310;SDS011;35177;45.900;5.946;2023-12-20T06:05:58;40.42;;;24.00;;
49310;SDS011;35177;45.900;5.946;2023-12-20T06:08:25;38.97;;;24.63;;
49310;SDS011;35177;45.900;5.946;2023-12-20T06:10:51;42.88;;;25.50;;
49310;SDS011;35177;45.900;5.946;2023-12-20T06:13:16;42.97;;;24.70;;
49310;SDS011;35177;45.900;5.946;2023-12-20T06:15:42;44.88;;;24.83;;
49310;SDS011;35177;45.900;5.946;2023-12-20T06:18:07;39.90;;;24.33;;
49310;SDS011;35177;45.900;5.946;2023-12-20T06:20:32;43.70;;;25.27;;
49310;SDS011;35177;45.900;5.946;2023-12-20T06:22:58;40.53;;;24.92;;
49310;SDS011;35177;45.900;5.946;2023-12-20T06:25:24;44.42;;;24.85;;
49310;SDS011;35177;45.900;5.946;2023-12-20T06:27:49;44.78;;;26.98;;
49310;SDS011;35177;45.900;5.946;2023-12-20T06:30:15;54.83;;;31.27;;
49310;SDS011;35177;45.900;5.946;2023-12-20T06:32:41;49.35;;;27.13;;
49310;SDS011;35177;45.900;5.946;2023-12-20T06:35:08;42.58;;;25.67;;
49310;SDS011;35177;45.900;5.946;2023-12-20T06:37:34;46.78;;;25.80;;
49310;SDS011;35177;45.900;5.946;2023-12-20T06:39:59;47.05;;;26.85;;
49310;SDS011;35177;45.900;5.946;2023-12-20T06:42:25;46.97;;;27.38;;
49310;SDS011;35177;45.900;5.946;2023-12-20T06:44:50;47.10;;;29.20;;
49310;SDS011;35177;45.900;5.946;2023-12-20T06:47:15;48.28;;;29.67;;
49310;SDS011;35177;45.900;5.946;2023-12-20T06:49:41;41.95;;;25.45;;
49310;SDS011;35177;45.900;5.946;2023-12-20T06:52:06;41.50;;;25.75;;
49310;SDS011;35177;45.900;5.946;2023-12-20T06:54:32;47.35;;;26.98;;
49310;SDS011;35177;45.900;5.946;2023-12-20T06:56:59;40.83;;;23.20;;
49310;SDS011;35177;45.900;5.946;2023-12-20T06:59:25;52.50;;;27.73;;
49310;SDS011;35177;45.900;5.946;2023-12-20T07:01:51;46.00;;;25.17;;
49310;SDS011;35177;45.900;5.946;2023-12-20T07:04:16;49.42;;;28.00;;
49310;SDS011;35177;45.900;5.946;2023-12-20T07:06:46;43.58;;;26.35;;
49310;SDS011;35177;45.900;5.946;2023-12-20T07:09:21;45.33;;;26.73;;
49310;SDS011;35177;45.900;5.946;2023-12-20T07:11:47;45.08;;;25.52;;
49310;SDS011;35177;45.900;5.946;2023-12-20T07:14:12;53.28;;;28.20;;
49310;SDS011;35177;45.900;5.946;2023-12-20T07:16:38;52.50;;;32.78;;
49310;SDS011;35177;45.900;5.946;2023-12-20T07:19:03;64.45;;;38.53;;
49310;SDS011;35177;45.900;5.946;2023-12-20T07:21:29;64.50;;;38.08;;
49310;SDS011;35177;45.900;5.946;2023-12-20T07:23:54;50.33;;;29.15;;
49310;SDS011;35177;45.900;5.946;2023-12-20T07:26:19;44.72;;;26.88;;
49310;SDS011;35177;45.900;5.946;2023-12-20T07:28:46;46.75;;;28.70;;
49310;SDS011;35177;45.900;5.946;2023-12-20T07:31:11;47.47;;;27.70;;
49310;SDS011;35177;45.900;5.946;2023-12-20T07:33:37;43.38;;;26.20;;
49310;SDS011;35177;45.900;5.946;2023-12-20T07:36:02;43.60;;;25.40;;
49310;SDS011;35177;45.900;5.946;2023-12-20T07:38:28;46.15;;;24.75;;
49310;SDS011;35177;45.900;5.946;2023-12-20T07:40:54;42.45;;;26.10;;
49310;SDS011;35177;45.900;5.946;2023-12-20T07:43:19;44.88;;;25.27;;
49310;SDS011;35177;45.900;5.946;2023-12-20T07:45:44;41.22;;;25.45;;
49310;SDS011;35177;45.900;5.946;2023-12-20T07:48:10;46.65;;;27.48;;
49310;SDS011;35177;45.900;5.946;2023-12-20T07:50:35;45.72;;;27.00;;
49310;SDS011;35177;45.900;5.946;2023-12-20T07:53:01;42.13;;;25.77;;
49310;SDS011;35177;45.900;5.946;2023-12-20T07:55:28;44.70;;;26.88;;
49310;SDS011;35177;45.900;5.946;2023-12-20T07:57:55;43.70;;;25.23;;
49310;SDS011;35177;45.900;5.946;2023-12-20T08:00:20;45.65;;;26.35;;
49310;SDS011;35177;45.900;5.946;2023-12-20T08:02:46;44.47;;;26.23;;
49310;SDS011;35177;45.900;5.946;2023-12-20T08:05:11;43.13;;;25.98;;
49310;SDS011;35177;45.900;5.946;2023-12-20T08:07:37;46.35;;;25.77;;
49310;SDS011;35177;45.900;5.946;2023-12-20T08:10:02;42.20;;;26.33;;
49310;SDS011;35177;45.900;5.946;2023-12-20T08:12:28;46.83;;;26.98;;
49310;SDS011;35177;45.900;5.946;2023-12-20T08:14:54;45.15;;;25.48;;
49310;SDS011;35177;45.900;5.946;2023-12-20T08:17:19;44.78;;;26.63;;
49310;SDS011;35177;45.900;5.946;2023-12-20T08:19:45;49.47;;;27.25;;
49310;SDS011;35177;45.900;5.946;2023-12-20T08:22:10;45.67;;;25.55;;
49310;SDS011;35177;45.900;5.946;2023-12-20T08:24:36;47.85;;;27.48;;
49310;SDS011;35177;45.900;5.946;2023-12-20T08:27:01;48.28;;;28.00;;
49310;SDS011;35177;45.900;5.946;2023-12-20T08:29:27;49.42;;;27.25;;
49310;SDS011;35177;45.900;5.946;2023-12-20T08:31:53;48.95;;;29.13;;
49310;SDS011;35177;45.900;5.946;2023-12-20T08:34:20;49.67;;;27.77;;
49310;SDS011;35177;45.900;5.946;2023-12-20T08:36:46;51.67;;;30.42;;
49310;SDS011;35177;45.900;5.946;2023-12-20T08:39:11;53.03;;;30.75;;
49310;SDS011;35177;45.900;5.946;2023-12-20T08:41:37;50.65;;;28.40;;
49310;SDS011;35177;45.900;5.946;2023-12-20T08:44:02;49.53;;;27.30;;
49310;SDS011;35177;45.900;5.946;2023-12-20T08:46:28;42.13;;;25.75;;
49310;SDS011;35177;45.900;5.946;2023-12-20T08:48:54;44.97;;;27.67;;
49310;SDS011;35177;45.900;5.946;2023-12-20T08:51:19;48.28;;;26.80;;
49310;SDS011;35177;45.900;5.946;2023-12-20T08:53:46;45.92;;;27.13;;
49310;SDS011;35177;45.900;5.946;2023-12-20T08:56:12;44.30;;;27.00;;
49310;SDS011;35177;45.900;5.946;2023-12-20T08:58:38;43.33;;;26.63;;
49310;SDS011;35177;45.900;5.946;2023-12-20T09:01:03;41.60;;;27.45;;
49310;SDS011;35177;45.900;5.946;2023-12-20T09:03:28;45.75;;;28.35;;
49310;SDS011;35177;45.900;5.946;2023-12-20T09:05:54;44.45;;;28.38;;
49310;SDS011;35177;45.900;5.946;2023-12-20T09:08:19;46.35;;;29.05;;
49310;SDS011;35177;45.900;5.946;2023-12-20T09:10:45;46.05;;;29.10;;
49310;SDS011;35177;45.900;5.946;2023-12-20T09:13:10;44.47;;;27.35;;
49310;SDS011;35177;45.900;5.946;2023-12-20T09:15:36;41.35;;;26.65;;
49310;SDS011;35177;45.900;5.946;2023-12-20T09:18:02;50.42;;;28.33;;
49310;SDS011;35177;45.900;5.946;2023-12-20T09:20:27;45.38;;;27.83;;
49310;SDS011;35177;45.900;5.946;2023-12-20T09:22:53;41.42;;;26.52;;
49310;SDS011;35177;45.900;5.946;2023-12-20T09:25:18;39.65;;;25.75;;
49310;SDS011;35177;45.900;5.946;2023-12-20T09:27:44;38.20;;;25.40;;
49310;SDS011;35177;45.900;5.946;2023-12-20T09:30:09;34.13;;;22.35;;
49310;SDS011;35177;45.900;5.946;2023-12-20T09:32:35;36.50;;;22.42;;
49310;SDS011;35177;45.900;5.946;2023-12-20T09:35:00;30.65;;;20.20;;
49310;SDS011;35177;45.900;5.946;2023-12-20T09:37:27;29.27;;;19.90;;
49310;SDS011;35177;45.900;5.946;2023-12-20T09:39:52;30.90;;;18.95;;
49310;SDS011;35177;45.900;5.946;2023-12-20T09:42:21;24.25;;;15.85;;
49310;SDS011;35177;45.900;5.946;2023-12-20T09:44:51;21.52;;;15.05;;
49310;SDS011;35177;45.900;5.946;2023-12-20T09:47:16;24.77;;;16.55;;
49310;SDS011;35177;45.900;5.946;2023-12-20T09:49:49;21.15;;;15.15;;
49310;SDS011;35177;45.900;5.946;2023-12-20T09:52:15;23.27;;;16.42;;
49310;SDS011;35177;45.900;5.946;2023-12-20T09:54:43;21.85;;;14.60;;
49310;SDS011;35177;45.900;5.946;2023-12-20T09:57:09;22.13;;;15.10;;
49310;SDS011;35177;45.900;5.946;2023-12-20T09:59:35;22.67;;;15.63;;
49310;SDS011;35177;45.900;5.946;2023-12-20T10:02:00;22.98;;;15.60;;
49310;SDS011;35177;45.900;5.946;2023-12-20T10:04:29;33.33;;;21.48;;
49310;SDS011;35177;45.900;5.946;2023-12-20T10:06:57;27.27;;;18.20;;
49310;SDS011;35177;45.900;5.946;2023-12-20T10:09:31;29.95;;;18.95;;
49310;SDS011;35177;45.900;5.946;2023-12-20T10:11:57;27.88;;;19.02;;
49310;SDS011;35177;45.900;5.946;2023-12-20T10:14:23;29.27;;;19.75;;
49310;SDS011;35177;45.900;5.946;2023-12-20T10:16:49;28.67;;;18.98;;
49310;SDS011;35177;45.900;5.946;2023-12-20T10:19:16;28.92;;;19.02;;
49310;SDS011;35177;45.900;5.946;2023-12-20T10:21:42;28.65;;;19.10;;
49310;SDS011;35177;45.900;5.946;2023-12-20T10:24:08;29.25;;;19.58;;
49310;SDS011;35177;45.900;5.946;2023-12-20T10:26:33;33.08;;;21.35;;
49310;SDS011;35177;45.900;5.946;2023-12-20T10:28:59;31.42;;;20.27;;
49310;SDS011;35177;45.900;5.946;2023-12-20T10:31:29;35.17;;;22.13;;
49310;SDS011;35177;45.900;5.946;2023-12-20T10:33:59;37.40;;;22.65;;
49310;SDS011;35177;45.900;5.946;2023-12-20T10:36:26;34.50;;;20.98;;
49310;SDS011;35177;45.900;5.946;2023-12-20T10:38:53;31.00;;;19.85;;
49310;SDS011;35177;45.900;5.946;2023-12-20T10:43:56;27.15;;;18.52;;
49310;SDS011;35177;45.900;5.946;2023-12-20T10:46:24;30.25;;;20.05;;
49310;SDS011;35177;45.900;5.946;2023-12-20T10:48:51;32.45;;;21.02;;
49310;SDS011;35177;45.900;5.946;2023-12-20T10:51:19;31.27;;;20.90;;
49310;SDS011;35177;45.900;5.946;2023-12-20T10:53:47;34.03;;;21.67;;
49310;SDS011;35177;45.900;5.946;2023-12-20T10:56:15;36.08;;;23.92;;
49310;SDS011;35177;45.900;5.946;2023-12-20T10:58:43;39.10;;;25.83;;
49310;SDS011;35177;45.900;5.946;2023-12-20T11:01:10;39.35;;;25.45;;
49310;SDS011;35177;45.900;5.946;2023-12-20T11:03:38;36.97;;;24.45;;
49310;SDS011;35177;45.900;5.946;2023-12-20T11:06:26;34.50;;;21.92;;
49310;SDS011;35177;45.900;5.946;2023-12-20T11:09:01;39.33;;;22.90;;
49310;SDS011;35177;45.900;5.946;2023-12-20T11:11:52;35.45;;;21.63;;
49310;SDS011;35177;45.900;5.946;2023-12-20T11:14:47;33.65;;;21.42;;
49310;SDS011;35177;45.900;5.946;2023-12-20T11:17:16;36.17;;;21.92;;
49310;SDS011;35177;45.900;5.946;2023-12-20T11:20:03;34.75;;;22.95;;
49310;SDS011;35177;45.900;5.946;2023-12-20T11:22:30;34.05;;;21.27;;
49310;SDS011;35177;45.900;5.946;2023-12-20T11:25:06;34.65;;;22.80;;
49310;SDS011;35177;45.900;5.946;2023-12-20T11:27:36;33.65;;;21.17;;
49310;SDS011;35177;45.900;5.946;2023-12-20T11:30:05;35.45;;;21.90;;
49310;SDS011;35177;45.900;5.946;2023-12-20T11:32:34;36.13;;;22.38;;
49310;SDS011;35177;45.900;5.946;2023-12-20T11:35:00;33.13;;;21.30;;
49310;SDS011;35177;45.900;5.946;2023-12-20T11:37:48;30.60;;;20.10;;
49310;SDS011;35177;45.900;5.946;2023-12-20T11:40:15;34.15;;;20.20;;
49310;SDS011;35177;45.900;5.946;2023-12-20T11:42:43;35.22;;;21.75;;
49310;SDS011;35177;45.900;5.946;2023-12-20T11:45:14;35.40;;;21.48;;
49310;SDS011;35177;45.900;5.946;2023-12-20T11:47:45;35.67;;;22.00;;
49310;SDS011;35177;45.900;5.946;2023-12-20T11:50:11;34.08;;;20.08;;
49310;SDS011;35177;45.900;5.946;2023-12-20T11:52:37;29.80;;;19.55;;
49310;SDS011;35177;45.900;5.946;2023-12-20T11:55:03;33.40;;;20.80;;
49310;SDS011;35177;45.900;5.946;2023-12-20T11:57:29;30.27;;;19.25;;
49310;SDS011;35177;45.900;5.946;2023-12-20T11:59:55;35.35;;;22.08;;
49310;SDS011;35177;45.900;5.946;2023-12-20T12:02:21;31.92;;;20.40;;
49310;SDS011;35177;45.900;5.946;2023-12-20T12:04:48;30.65;;;20.50;;
49310;SDS011;35177;45.900;5.946;2023-12-20T12:07:15;34.88;;;20.48;;
49310;SDS011;35177;45.900;5.946;2023-12-20T12:09:41;28.30;;;17.60;;
49310;SDS011;35177;45.900;5.946;2023-12-20T12:12:08;12.65;;;7.60;;
49310;SDS011;35177;45.900;5.946;2023-12-20T12:14:33;15.13;;;7.95;;
49310;SDS011;35177;45.900;5.946;2023-12-20T12:17:01;7.22;;;3.67;;
49310;SDS011;35177;45.900;5.946;2023-12-20T12:19:27;5.82;;;3.55;;
49310;SDS011;35177;45.900;5.946;2023-12-20T12:22:15;8.00;;;5.68;;
49310;SDS011;35177;45.900;5.946;2023-12-20T12:27:11;1.77;;;1.05;;
49310;SDS011;35177;45.900;5.946;2023-12-20T12:29:41;1.05;;;0.80;;
49310;SDS011;35177;45.900;5.946;2023-12-20T12:32:24;0.90;;;0.70;;
49310;SDS011;35177;45.900;5.946;2023-12-20T12:34:50;2.15;;;0.73;;
49310;SDS011;35177;45.900;5.946;2023-12-20T12:37:16;2.47;;;1.08;;
49310;SDS011;35177;45.900;5.946;2023-12-20T12:39:41;1.17;;;0.70;;
49310;SDS011;35177;45.900;5.946;2023-12-20T12:42:06;1.98;;;1.02;;
49310;SDS011;35177;45.900;5.946;2023-12-20T12:44:32;1.33;;;1.00;;
49310;SDS011;35177;45.900;5.946;2023-12-20T12:46:57;1.90;;;1.00;;
49310;SDS011;35177;45.900;5.946;2023-12-20T12:49:23;1.40;;;0.70;;
49310;SDS011;35177;45.900;5.946;2023-12-20T12:51:48;1.13;;;0.90;;
49310;SDS011;35177;45.900;5.946;2023-12-20T12:54:14;1.17;;;0.90;;
49310;SDS011;35177;45.900;5.946;2023-12-20T12:56:41;3.38;;;1.55;;
49310;SDS011;35177;45.900;5.946;2023-12-20T12:59:08;2.72;;;1.70;;
49310;SDS011;35177;45.900;5.946;2023-12-20T13:01:33;2.45;;;1.20;;
49310;SDS011;35177;45.900;5.946;2023-12-20T13:03:59;1.38;;;0.82;;
49310;SDS011;35177;45.900;5.946;2023-12-20T13:06:26;1.75;;;1.08;;
49310;SDS011;35177;45.900;5.946;2023-12-20T13:08:52;2.90;;;1.40;;
49310;SDS011;35177;45.900;5.946;2023-12-20T13:11:17;1.20;;;0.63;;
49310;SDS011;35177;45.900;5.946;2023-12-20T13:13:42;4.38;;;2.00;;
49310;SDS011;35177;45.900;5.946;2023-12-20T13:16:08;1.90;;;0.98;;
49310;SDS011;35177;45.900;5.946;2023-12-20T13:18:33;2.13;;;1.40;;
49310;SDS011;35177;45.900;5.946;2023-12-20T13:20:59;1.02;;;0.82;;
49310;SDS011;35177;45.900;5.946;2023-12-20T13:23:24;0.77;;;0.70;;
49310;SDS011;35177;45.900;5.946;2023-12-20T13:25:50;1.40;;;0.75;;
49310;SDS011;35177;45.900;5.946;2023-12-20T13:28:15;3.00;;;1.20;;
49310;SDS011;35177;45.900;5.946;2023-12-20T13:30:41;1.25;;;1.00;;
49310;SDS011;35177;45.900;5.946;2023-12-20T13:33:06;1.67;;;1.02;;
49310;SDS011;35177;45.900;5.946;2023-12-20T13:35:32;2.45;;;1.40;;
49310;SDS011;35177;45.900;5.946;2023-12-20T13:37:59;2.10;;;1.10;;
49310;SDS011;35177;45.900;5.946;2023-12-20T13:40:25;2.08;;;1.77;;
49310;SDS011;35177;45.900;5.946;2023-12-20T13:42:51;3.35;;;1.10;;
49310;SDS011;35177;45.900;5.946;2023-12-20T13:45:16;5.07;;;1.42;;
49310;SDS011;35177;45.900;5.946;2023-12-20T13:47:42;2.50;;;1.60;;
49310;SDS011;35177;45.900;5.946;2023-12-20T13:50:07;3.38;;;1.92;;
49310;SDS011;35177;45.900;5.946;2023-12-20T13:52:33;3.80;;;1.80;;
49310;SDS011;35177;45.900;5.946;2023-12-20T13:54:58;1.60;;;1.20;;
49310;SDS011;35177;45.900;5.946;2023-12-20T13:57:23;1.77;;;1.27;;
49310;SDS011;35177;45.900;5.946;2023-12-20T13:59:49;2.65;;;1.10;;
49310;SDS011;35177;45.900;5.946;2023-12-20T14:02:14;2.15;;;1.05;;
49310;SDS011;35177;45.900;5.946;2023-12-20T14:04:41;3.95;;;1.40;;
49310;SDS011;35177;45.900;5.946;2023-12-20T14:07:07;1.38;;;0.80;;
49310;SDS011;35177;45.900;5.946;2023-12-20T14:09:32;1.70;;;1.08;;
49310;SDS011;35177;45.900;5.946;2023-12-20T14:11:58;2.63;;;1.83;;
49310;SDS011;35177;45.900;5.946;2023-12-20T14:14:23;1.92;;;1.10;;
49310;SDS011;35177;45.900;5.946;2023-12-20T14:16:49;4.95;;;1.20;;
49310;SDS011;35177;45.900;5.946;2023-12-20T14:19:14;1.25;;;0.70;;
49310;SDS011;35177;45.900;5.946;2023-12-20T14:21:40;2.20;;;1.02;;
49310;SDS011;35177;45.900;5.946;2023-12-20T14:24:05;1.95;;;0.90;;
49310;SDS011;35177;45.900;5.946;2023-12-20T14:26:31;3.35;;;1.05;;